CheckWX is a tool to help pilots better visualize weather data.  It is not intended as a substitute for an official pre-flight weather briefing.

08:34:16 UTC

KGKY METAR
Arlington Municipal Airport
Arlington, Texas, USA
Current

41 mins ago

KGKY 220753Z AUTO 10011KT 10SM OVC008 08/06 A2998 RMK AO2 RAE23 SLP151 P0000 T00830061
Observed
Feb-22 @ 07:53 UTC
Wind
  • 100° at 11 KTS
Visibility
10 SM
Flight Rules
IFR
Cloud Levels
  • Overcast at 800' AGL
Temperature
C / 46°F
Dewpoint
C / 43°F
Humidity
87%
Altimeter
29.98" Hg
Pressure
1015.1 hPa
Current Rain
0.01"
Previous

1 hour ago

KGKY 220722Z AUTO 10SM -RA OVC008 09/07 A2999 RMK AO2 P0000 T00890067
Observed
Feb-22 @ 07:22 UTC
Visibility
10 SM
Flight Rules
IFR
Conditions
Light Rain
Cloud Levels
  • Overcast at 800' AGL
Temperature
C / 48°F
Dewpoint
C / 45°F
Humidity
87%
Altimeter
29.99" Hg
Pressure
1015.62 hPa
Current Rain
0.01"
Previous

2 hours ago

KGKY 220653Z AUTO VRB04KT 10SM -RA OVC010 09/06 A3004 RMK AO2 RAB49 PRESRR SLP171 P0000 T00890061
Observed
Feb-22 @ 06:53 UTC
Wind
  • Variable at 4 KTS
Visibility
10 SM
Flight Rules
MVFR
Conditions
Light Rain
Cloud Levels
  • Overcast at 1,000' AGL
Temperature
C / 48°F
Dewpoint
C / 43°F
Humidity
82%
Altimeter
30.04" Hg
Pressure
1017.1 hPa
Current Rain
0.01"